Terminal Aerodrome Forecast
Issued by NWS

Home | Current Version | Previous Version | Text Only | Print | Product List | Glossary On
Versions: 1 2 3 4 5 6 7 8 9 10 11 12 13 14 15
291
FTUS43 KMQT 250520
TAFSAW
TAF
KSAW 250520Z 2506/2606 04008KT 3SM BR BKN005
     FM250900 04008KT 5SM BR BKN008
     FM251300 05006KT P6SM BKN012
     FM251600 06007KT P6SM BKN025
     FM251800 07008KT P6SM SCT025
     FM260300 10006KT P6SM BKN030
     FM260500 10006KT P6SM OVC015=

USA.gov is the U.S. government's official web portal to all federal, state and local government web resources and services.